Time;durP1;ratioP1;P1;durP2;ratioP2;P2;SDS_P1;SDS_P2;PMS_P1;PMS_P2;Temp;Humidity;BMP_temperature;BMP_pressure;BME280_temperature;BME280_humidity;BME280_pressure;Samples;Min_cycle;Max_cycle;Signal;HPM_P1;HPM_P2
2023/01/07 00:01:43;;;;;;;10.27;6.87;;;5.20;99.90;;;;;;5039425;28;20176;-88
2023/01/07 00:04:14;;;;;;;9.20;7.07;;;5.20;99.90;;;;;;5047638;28;20194;-86
2023/01/07 00:06:42;;;;;;;7.57;6.40;;;5.20;99.90;;;;;;5042686;28;20185;-88
2023/01/07 00:09:11;;;;;;;10.10;6.47;;;5.10;99.90;;;;;;5036328;28;20270;-87
2023/01/07 00:11:39;;;;;;;6.17;5.50;;;5.20;99.90;;;;;;5054860;28;20227;-88
2023/01/07 00:14:07;;;;;;;6.73;5.40;;;5.10;99.90;;;;;;5048606;28;20172;-86
2023/01/07 00:16:34;;;;;;;6.60;4.90;;;5.00;99.90;;;;;;5072559;28;20201;-84
2023/01/07 00:19:02;;;;;;;5.30;4.70;;;4.90;99.90;;;;;;5037937;28;20631;-87
2023/01/07 00:21:29;;;;;;;6.53;5.20;;;5.00;99.90;;;;;;5053968;28;20701;-89
2023/01/07 00:23:59;;;;;;;7.50;4.87;;;5.00;99.90;;;;;;5057681;28;20186;-86
2023/01/07 00:26:29;;;;;;;7.60;4.80;;;5.00;99.90;;;;;;5058013;28;20168;-85
2023/01/07 00:28:56;;;;;;;4.90;4.40;;;5.00;99.90;;;;;;5040078;28;20184;-86
2023/01/07 00:31:27;;;;;;;5.37;4.87;;;5.10;99.90;;;;;;5057986;28;20212;-88
2023/01/07 00:36:20;;;;;;;4.60;4.10;;;4.90;99.90;;;;;;5058613;28;20179;-88
2023/01/07 00:38:53;;;;;;;7.07;4.87;;;4.90;99.90;;;;;;5060204;28;20177;-87
2023/01/07 00:41:19;;;;;;;6.13;4.90;;;4.80;99.90;;;;;;5064114;28;20164;-86
2023/01/07 00:43:45;;;;;;;4.83;4.07;;;4.70;99.90;;;;;;5070923;28;20182;-87
2023/01/07 00:46:13;;;;;;;5.90;4.90;;;4.70;99.90;;;;;;5057295;28;20184;-86
2023/01/07 00:48:39;;;;;;;4.60;4.20;;;4.70;99.90;;;;;;5044299;28;20178;-86
2023/01/07 00:51:04;;;;;;;5.57;4.53;;;4.70;99.90;;;;;;5044253;28;20212;-87
2023/01/07 00:53:31;;;;;;;6.57;4.43;;;4.70;99.90;;;;;;5070448;28;20155;-88
2023/01/07 00:55:56;;;;;;;4.93;4.00;;;4.60;99.90;;;;;;5063222;28;20191;-88
2023/01/07 00:58:24;;;;;;;4.73;3.90;;;4.60;99.90;;;;;;5081237;28;20171;-89
2023/01/07 01:00:55;;;;;;;4.43;3.73;;;4.60;99.90;;;;;;5056379;28;20223;-89
2023/01/07 01:03:21;;;;;;;6.83;3.97;;;4.50;99.90;;;;;;5044620;28;20259;-85
2023/01/07 01:05:47;;;;;;;5.03;4.10;;;4.50;99.90;;;;;;5059570;28;20172;-87
2023/01/07 01:08:12;;;;;;;5.03;3.80;;;4.40;99.90;;;;;;5039546;28;20228;-88
2023/01/07 01:10:38;;;;;;;4.10;3.70;;;4.40;99.90;;;;;;5057264;28;20569;-88
2023/01/07 01:13:04;;;;;;;4.20;3.80;;;4.40;99.90;;;;;;5057077;28;20186;-88
2023/01/07 01:15:30;;;;;;;4.70;4.20;;;4.40;99.90;;;;;;5039139;28;20238;-88
2023/01/07 01:17:56;;;;;;;4.20;3.70;;;4.50;99.90;;;;;;5057146;28;20170;-89
2023/01/07 01:20:22;;;;;;;4.10;3.80;;;4.50;99.90;;;;;;5047535;28;20177;-86
2023/01/07 01:22:47;;;;;;;5.40;4.03;;;4.50;99.90;;;;;;5058732;28;20176;-89
2023/01/07 01:25:14;;;;;;;4.60;4.00;;;4.50;99.90;;;;;;5057360;28;20188;-87
2023/01/07 01:27:39;;;;;;;4.23;3.83;;;4.70;99.90;;;;;;5057039;28;20752;-88
2023/01/07 01:30:07;;;;;;;3.93;3.60;;;4.70;99.90;;;;;;5063848;28;20199;-86
2023/01/07 01:32:33;;;;;;;4.43;4.03;;;4.60;99.90;;;;;;5062068;28;20164;-88
2023/01/07 01:34:58;;;;;;;4.53;3.50;;;4.60;99.90;;;;;;5039438;28;20179;-88
2023/01/07 01:37:24;;;;;;;4.43;3.87;;;4.50;99.90;;;;;;5058765;28;20200;-86
2023/01/07 01:39:50;;;;;;;4.10;3.50;;;4.50;99.90;;;;;;5064361;28;20164;-86
2023/01/07 01:42:20;;;;;;;3.83;3.47;;;4.50;99.90;;;;;;5071109;28;20174;-86
2023/01/07 01:44:55;;;;;;;4.60;3.43;;;4.40;99.90;;;;;;5064876;28;20254;-86
2023/01/07 01:47:39;;;;;;;3.63;3.33;;;4.40;99.90;;;;;;5075440;28;20169;-86
2023/01/07 01:50:05;;;;;;;3.03;2.83;;;4.50;99.90;;;;;;5041467;28;20199;-88
2023/01/07 01:52:37;;;;;;;3.50;3.20;;;4.40;99.90;;;;;;5039778;28;20172;-86
2023/01/07 01:55:05;;;;;;;3.47;3.17;;;4.50;99.90;;;;;;5075043;28;20164;-84
2023/01/07 01:57:34;;;;;;;3.57;3.27;;;4.60;99.90;;;;;;5061460;28;20171;-88
2023/01/07 02:00:00;;;;;;;3.63;3.33;;;4.60;99.90;;;;;;5056247;28;20196;-87
2023/01/07 02:02:34;;;;;;;3.47;3.17;;;4.60;99.90;;;;;;5055973;28;20172;-86
2023/01/07 02:05:01;;;;;;;4.00;3.70;;;4.60;99.90;;;;;;5038651;28;20172;-89
2023/01/07 02:07:27;;;;;;;4.03;3.20;;;4.60;99.90;;;;;;5057022;28;20178;-89
2023/01/07 02:10:08;;;;;;;4.33;3.47;;;4.60;99.90;;;;;;5056228;28;20206;-88
2023/01/07 02:12:49;;;;;;;3.80;3.40;;;4.60;99.90;;;;;;5046419;28;20180;-86
2023/01/07 02:15:19;;;;;;;3.80;3.00;;;4.60;99.90;;;;;;5056707;28;20291;-85
2023/01/07 02:18:09;;;;;;;3.57;2.90;;;4.60;99.90;;;;;;5055550;28;20175;-86
2023/01/07 02:21:01;;;;;;;3.20;3.00;;;4.60;99.90;;;;;;5055834;28;20319;-86
2023/01/07 02:23:47;;;;;;;3.60;3.30;;;4.50;99.90;;;;;;5000124;28;20188;-85
2023/01/07 02:26:40;;;;;;;3.50;3.17;;;4.40;99.90;;;;;;5020981;28;20191;-88
2023/01/07 02:29:25;;;;;;;3.27;3.07;;;4.40;99.90;;;;;;5037589;28;20640;-86
2023/01/07 02:32:15;;;;;;;3.30;3.03;;;4.40;99.90;;;;;;5037589;28;20270;-87
2023/01/07 02:34:53;;;;;;;3.50;3.20;;;4.30;99.90;;;;;;5055909;28;20160;-90
2023/01/07 02:37:22;;;;;;;3.70;3.37;;;4.20;99.90;;;;;;5038987;28;20520;-88
2023/01/07 02:40:20;;;;;;;3.00;2.80;;;4.30;99.90;;;;;;5040314;28;20175;-88
2023/01/07 02:43:01;;;;;;;3.40;3.10;;;4.30;99.90;;;;;;5049824;28;20218;-88
2023/01/07 02:45:38;;;;;;;3.20;2.93;;;4.30;99.90;;;;;;5077390;28;20162;-88
2023/01/07 02:48:11;;;;;;;3.30;3.10;;;4.30;99.90;;;;;;5057963;28;20206;-87
2023/01/07 02:50:37;;;;;;;3.03;2.83;;;4.40;99.90;;;;;;5070844;28;20196;-87
2023/01/07 02:53:04;;;;;;;3.23;2.97;;;4.30;99.90;;;;;;5073460;28;20196;-86
2023/01/07 02:55:33;;;;;;;3.33;3.03;;;4.30;99.90;;;;;;5083374;28;20182;-85
2023/01/07 02:58:12;;;;;;;3.27;3.00;;;4.40;99.90;;;;;;5063140;28;20266;-86
2023/01/07 03:00:56;;;;;;;4.20;3.30;;;4.40;99.90;;;;;;5081491;28;20224;-85
2023/01/07 03:03:24;;;;;;;4.23;3.53;;;4.40;99.90;;;;;;5075597;28;20643;-86
2023/01/07 03:06:23;;;;;;;3.73;3.43;;;4.40;99.90;;;;;;5063718;28;20184;-84
2023/01/07 03:08:57;;;;;;;2.87;2.67;;;4.30;99.90;;;;;;5086169;28;20181;-85
2023/01/07 03:11:28;;;;;;;3.43;3.00;;;4.20;99.90;;;;;;5078882;28;20283;-85
2023/01/07 03:14:07;;;;;;;4.07;3.07;;;4.20;99.90;;;;;;5074347;28;20206;-85
2023/01/07 03:16:38;;;;;;;3.43;3.13;;;4.30;99.90;;;;;;5056728;28;20190;-84
2023/01/07 03:19:20;;;;;;;3.13;2.93;;;4.40;99.90;;;;;;5056194;28;20184;-85
2023/01/07 03:21:47;;;;;;;3.03;2.83;;;4.30;99.90;;;;;;5065956;28;20212;-85
2023/01/07 03:24:14;;;;;;;3.30;3.00;;;4.20;99.90;;;;;;5057802;28;20182;-88
2023/01/07 03:26:47;;;;;;;3.50;2.90;;;4.10;99.90;;;;;;5074466;28;20701;-87
2023/01/07 03:29:16;;;;;;;5.63;2.60;;;4.10;99.90;;;;;;5056112;28;20186;-87
2023/01/07 03:32:00;;;;;;;3.10;2.90;;;4.20;99.90;;;;;;5074814;28;20692;-87
2023/01/07 03:34:27;;;;;;;3.20;3.00;;;4.20;99.90;;;;;;5080056;28;20199;-84
2023/01/07 03:37:00;;;;;;;3.17;2.87;;;4.10;99.90;;;;;;5075716;28;20177;-86
2023/01/07 03:39:30;;;;;;;5.13;3.10;;;4.10;99.90;;;;;;5073558;28;20193;-85
2023/01/07 03:44:42;;;;;;;3.40;3.10;;;4.10;99.90;;;;;;5072999;28;20178;-82
2023/01/07 03:47:09;;;;;;;3.10;2.90;;;4.10;99.90;;;;;;5076247;28;20170;-84
2023/01/07 03:49:35;;;;;;;2.97;2.77;;;4.10;99.90;;;;;;5057904;28;20279;-86
2023/01/07 03:52:02;;;;;;;2.83;2.63;;;4.10;99.90;;;;;;5055330;28;20186;-84
2023/01/07 03:54:27;;;;;;;2.60;2.50;;;4.00;99.90;;;;;;5054971;28;20175;-84
2023/01/07 03:56:53;;;;;;;2.70;2.50;;;4.00;99.90;;;;;;5073173;28;20167;-84
2023/01/07 03:59:19;;;;;;;3.40;2.87;;;3.90;99.90;;;;;;5073166;28;20195;-84
2023/01/07 04:01:45;;;;;;;2.80;2.60;;;3.90;99.90;;;;;;5080188;28;20159;-85
2023/01/07 04:04:10;;;;;;;2.47;2.37;;;3.90;99.90;;;;;;5092100;28;20204;-83
2023/01/07 04:06:36;;;;;;;3.57;2.83;;;4.00;99.90;;;;;;5080415;28;20175;-85
2023/01/07 04:09:02;;;;;;;3.10;2.80;;;3.90;99.90;;;;;;5083296;28;20190;-87
2023/01/07 04:11:28;;;;;;;2.77;2.57;;;3.90;99.90;;;;;;5056352;28;20210;-85
2023/01/07 04:13:55;;;;;;;2.83;2.60;;;3.90;99.90;;;;;;5076700;28;20174;-85
2023/01/07 04:16:21;;;;;;;3.10;2.90;;;3.90;99.90;;;;;;5073073;28;20167;-85
2023/01/07 04:18:47;;;;;;;4.03;2.77;;;3.90;99.90;;;;;;5073060;28;20240;-86
2023/01/07 04:21:13;;;;;;;2.87;2.67;;;4.00;99.90;;;;;;5055496;28;20730;-87
2023/01/07 04:23:38;;;;;;;3.23;2.93;;;4.00;99.90;;;;;;5073289;28;20171;-86
2023/01/07 04:26:04;;;;;;;2.33;2.23;;;4.00;99.90;;;;;;5073441;28;20205;-84
2023/01/07 04:28:30;;;;;;;2.73;2.43;;;4.00;99.90;;;;;;5057313;28;20179;-89
2023/01/07 04:30:58;;;;;;;3.07;2.80;;;4.00;99.90;;;;;;5065302;28;20218;-87
2023/01/07 04:33:24;;;;;;;2.83;2.63;;;4.10;99.90;;;;;;5061529;28;20243;-86
2023/01/07 04:35:49;;;;;;;4.83;2.30;;;4.10;99.90;;;;;;5076795;28;20545;-87
2023/01/07 04:38:15;;;;;;;2.40;2.30;;;4.10;99.90;;;;;;5082773;28;20231;-86
2023/01/07 04:40:41;;;;;;;2.47;2.27;;;4.20;99.90;;;;;;5079404;28;20177;-84
2023/01/07 04:43:08;;;;;;;2.57;2.37;;;4.20;99.90;;;;;;5076593;28;20533;-85
2023/01/07 04:45:34;;;;;;;3.97;2.60;;;4.20;99.90;;;;;;5075345;28;20198;-84
2023/01/07 04:48:00;;;;;;;2.57;2.37;;;4.20;99.90;;;;;;5043738;28;20181;-85
2023/01/07 04:50:25;;;;;;;2.90;2.70;;;4.20;99.90;;;;;;5056414;28;20286;-84
2023/01/07 04:52:51;;;;;;;2.60;2.40;;;4.20;99.90;;;;;;5073124;28;20204;-84
2023/01/07 04:55:17;;;;;;;2.60;2.40;;;4.20;99.90;;;;;;5045856;28;20193;-86
2023/01/07 04:57:43;;;;;;;4.10;2.57;;;4.20;99.90;;;;;;5036753;28;20767;-85
2023/01/07 05:00:09;;;;;;;2.57;2.37;;;4.20;99.90;;;;;;5035902;28;20184;-87
2023/01/07 05:02:35;;;;;;;2.80;2.60;;;4.20;99.90;;;;;;5056894;28;20208;-85
2023/01/07 05:05:01;;;;;;;2.80;2.60;;;4.30;99.90;;;;;;5043581;28;20658;-86
2023/01/07 05:07:27;;;;;;;2.60;2.40;;;4.30;99.90;;;;;;5035154;28;20636;-87
2023/01/07 05:09:52;;;;;;;2.30;2.20;;;4.20;99.90;;;;;;5038982;28;20216;-87
2023/01/07 05:12:18;;;;;;;3.10;2.77;;;4.20;99.90;;;;;;5057812;28;20172;-86
2023/01/07 05:14:44;;;;;;;3.00;2.80;;;4.20;99.90;;;;;;5038453;28;20234;-86
2023/01/07 05:17:09;;;;;;;2.97;2.63;;;4.20;99.90;;;;;;5041452;28;20176;-84
2023/01/07 05:19:35;;;;;;;2.57;2.47;;;4.20;99.90;;;;;;5062781;28;20199;-85
2023/01/07 05:22:01;;;;;;;2.73;2.50;;;4.20;99.90;;;;;;5038870;28;20186;-86
2023/01/07 05:24:27;;;;;;;2.83;2.50;;;4.30;99.90;;;;;;5064705;28;20172;-87
2023/01/07 05:26:53;;;;;;;2.93;2.73;;;4.30;99.90;;;;;;5056048;28;20183;-86
2023/01/07 05:29:18;;;;;;;2.83;2.60;;;4.30;99.90;;;;;;5055740;28;20179;-87
2023/01/07 05:31:44;;;;;;;2.57;2.37;;;4.30;99.90;;;;;;5055367;28;20196;-86
2023/01/07 05:34:10;;;;;;;4.40;2.60;;;4.30;99.90;;;;;;5056074;28;20172;-86
2023/01/07 05:36:35;;;;;;;2.70;2.50;;;4.30;99.90;;;;;;5066639;28;20191;-85
2023/01/07 05:39:01;;;;;;;2.50;2.40;;;4.30;99.90;;;;;;5074736;28;20177;-85
2023/01/07 05:41:27;;;;;;;2.50;2.07;;;4.30;99.90;;;;;;5058268;28;20174;-87
2023/01/07 05:43:53;;;;;;;2.67;2.47;;;4.40;99.90;;;;;;5056608;28;20194;-87
2023/01/07 05:46:18;;;;;;;2.73;2.53;;;4.40;99.90;;;;;;5055577;28;20203;-86
2023/01/07 05:48:44;;;;;;;2.50;2.40;;;4.30;99.90;;;;;;5042311;28;20309;-86
2023/01/07 05:51:10;;;;;;;3.07;2.80;;;4.40;99.90;;;;;;5038890;28;20208;-86
2023/01/07 05:53:36;;;;;;;3.27;2.97;;;4.30;99.90;;;;;;5055494;28;20177;-88
2023/01/07 05:56:02;;;;;;;2.57;2.47;;;4.40;99.90;;;;;;5055698;28;20579;-87
2023/01/07 05:58:28;;;;;;;2.70;2.50;;;4.40;99.90;;;;;;5054887;28;20172;-87
2023/01/07 06:00:54;;;;;;;2.80;2.60;;;4.30;99.90;;;;;;5040272;28;20237;-88
2023/01/07 06:03:20;;;;;;;2.70;2.50;;;4.30;99.90;;;;;;5044140;28;20180;-85
2023/01/07 06:05:47;;;;;;;2.93;2.73;;;4.30;99.90;;;;;;5055442;28;20187;-85
2023/01/07 06:08:13;;;;;;;3.30;3.00;;;4.40;99.90;;;;;;5055712;28;20260;-88
2023/01/07 06:10:39;;;;;;;3.70;3.40;;;4.40;99.90;;;;;;5058419;28;20211;-86
2023/01/07 06:13:05;;;;;;;2.93;2.77;;;4.40;99.90;;;;;;5069991;28;20186;-89
2023/01/07 06:15:31;;;;;;;3.20;2.90;;;4.40;99.90;;;;;;5056945;28;20223;-88
2023/01/07 06:17:56;;;;;;;3.17;2.93;;;4.40;99.90;;;;;;5065044;28;20174;-88
2023/01/07 06:20:23;;;;;;;3.03;2.83;;;4.40;99.90;;;;;;5073144;28;20188;-91
2023/01/07 06:22:49;;;;;;;3.00;2.77;;;4.30;99.90;;;;;;5058526;28;20170;-89
2023/01/07 06:25:15;;;;;;;3.20;2.70;;;4.40;99.90;;;;;;5079387;28;20290;-88
2023/01/07 06:27:41;;;;;;;3.00;2.70;;;4.40;99.90;;;;;;5073434;28;20195;-86
2023/01/07 06:30:09;;;;;;;3.10;2.90;;;4.40;99.90;;;;;;5058536;28;20207;-86
2023/01/07 06:32:39;;;;;;;2.97;2.73;;;4.40;99.90;;;;;;5058927;28;20170;-84
2023/01/07 06:35:06;;;;;;;2.77;2.57;;;4.50;99.90;;;;;;5038482;28;20183;-87
2023/01/07 06:37:32;;;;;;;2.90;2.70;;;4.50;99.90;;;;;;5038482;28;20603;-87
2023/01/07 06:39:58;;;;;;;2.60;2.50;;;4.50;99.90;;;;;;5056863;28;20193;-86
2023/01/07 06:42:23;;;;;;;2.97;2.77;;;4.50;99.90;;;;;;5058418;28;20206;-88
2023/01/07 06:44:49;;;;;;;4.37;2.97;;;4.50;99.90;;;;;;5070864;28;20156;-86
2023/01/07 06:47:15;;;;;;;3.47;3.17;;;4.40;99.90;;;;;;5042035;28;20199;-86
2023/01/07 06:49:41;;;;;;;3.07;2.83;;;4.40;99.90;;;;;;5026027;28;20175;-88
2023/01/07 06:52:07;;;;;;;3.03;2.80;;;4.50;99.90;;;;;;5065647;28;20182;-87
2023/01/07 06:54:33;;;;;;;6.90;4.90;;;4.40;99.90;;;;;;5076932;28;20198;-88
2023/01/07 06:56:58;;;;;;;5.60;4.80;;;4.30;99.90;;;;;;5067312;28;20624;-88
2023/01/07 06:59:24;;;;;;;5.77;5.17;;;4.30;99.90;;;;;;5063795;28;20187;-85
2023/01/07 07:01:50;;;;;;;6.73;5.30;;;4.30;99.90;;;;;;5073037;28;20197;-87
2023/01/07 07:04:16;;;;;;;9.30;4.83;;;4.30;99.90;;;;;;5057423;28;20184;-90
2023/01/07 07:06:42;;;;;;;5.80;4.77;;;4.30;99.90;;;;;;5037581;28;20174;-85
2023/01/07 07:09:07;;;;;;;6.73;4.93;;;4.30;99.90;;;;;;5054943;28;20634;-90
2023/01/07 07:11:33;;;;;;;5.30;4.17;;;4.30;99.90;;;;;;5037079;28;20216;-87
2023/01/07 07:13:59;;;;;;;4.40;3.93;;;4.30;99.90;;;;;;5037101;28;20172;-89
2023/01/07 07:16:25;;;;;;;5.00;4.00;;;4.30;99.90;;;;;;5054965;28;20166;-86
2023/01/07 07:18:52;;;;;;;4.50;4.10;;;4.30;99.90;;;;;;5055002;28;20187;-85
2023/01/07 07:21:18;;;;;;;5.70;4.10;;;4.20;99.90;;;;;;5054823;28;20204;-88
2023/01/07 07:23:44;;;;;;;21.27;13.97;;;4.20;99.90;;;;;;5055169;28;20168;-88
2023/01/07 07:26:10;;;;;;;15.40;10.80;;;4.40;99.90;;;;;;5054729;28;20199;-88
2023/01/07 07:28:36;;;;;;;11.60;8.17;;;4.40;99.90;;;;;;5055499;28;20168;-86
2023/01/07 07:31:03;;;;;;;10.13;8.17;;;4.40;99.90;;;;;;5044557;28;20695;-87
2023/01/07 07:33:28;;;;;;;10.33;8.33;;;4.40;99.90;;;;;;5037324;28;20194;-86
2023/01/07 07:35:55;;;;;;;8.57;7.20;;;4.40;99.90;;;;;;5054043;28;20184;-87
2023/01/07 07:38:21;;;;;;;7.53;6.47;;;4.40;99.90;;;;;;5059641;28;20160;-87
2023/01/07 07:40:47;;;;;;;6.40;5.70;;;4.30;99.90;;;;;;5065125;28;20175;-86
2023/01/07 07:43:14;;;;;;;7.90;6.10;;;4.40;99.90;;;;;;5063369;28;20177;-86
2023/01/07 07:45:40;;;;;;;6.97;5.90;;;4.50;99.90;;;;;;5060329;28;20239;-88
2023/01/07 07:48:07;;;;;;;7.00;6.30;;;4.50;99.90;;;;;;5040221;28;20181;-87
2023/01/07 07:50:34;;;;;;;8.63;6.60;;;4.60;99.90;;;;;;5058244;28;20211;-87
2023/01/07 07:53:00;;;;;;;10.10;7.57;;;4.50;99.90;;;;;;5058538;28;20177;-87
2023/01/07 07:55:25;;;;;;;11.70;7.57;;;4.50;99.90;;;;;;5060229;28;20237;-86
2023/01/07 07:57:55;;;;;;;10.73;6.67;;;4.50;99.90;;;;;;5052870;28;20172;-86
2023/01/07 08:00:22;;;;;;;8.07;6.33;;;4.60;99.90;;;;;;5048289;28;20180;-88
2023/01/07 08:02:48;;;;;;;8.03;6.47;;;4.70;99.90;;;;;;5071985;28;20259;-87
2023/01/07 08:05:14;;;;;;;8.33;6.20;;;4.70;99.90;;;;;;5068434;28;20189;-86
2023/01/07 08:07:41;;;;;;;7.80;6.00;;;4.70;99.90;;;;;;5057390;28;20173;-84
2023/01/07 08:10:08;;;;;;;8.27;5.83;;;4.70;99.90;;;;;;5057237;28;20196;-86
2023/01/07 08:12:38;;;;;;;7.87;6.37;;;4.70;99.90;;;;;;5022882;28;20192;-85
2023/01/07 08:15:05;;;;;;;6.87;5.67;;;4.80;99.90;;;;;;5040067;28;20234;-86
2023/01/07 08:17:31;;;;;;;6.63;6.03;;;4.80;99.90;;;;;;5057412;28;20173;-85
2023/01/07 08:19:58;;;;;;;7.87;6.30;;;4.70;99.90;;;;;;5039416;28;20230;-84
2023/01/07 08:22:24;;;;;;;8.57;5.80;;;4.80;99.90;;;;;;5046554;28;20187;-85
2023/01/07 08:24:51;;;;;;;7.97;6.20;;;4.70;99.90;;;;;;5057004;28;20171;-87
2023/01/07 08:27:17;;;;;;;6.20;5.60;;;4.70;99.90;;;;;;5036905;28;20213;-89
2023/01/07 08:29:43;;;;;;;6.90;6.17;;;4.70;99.90;;;;;;5038840;28;20698;-86
2023/01/07 08:32:10;;;;;;;7.43;5.87;;;4.80;99.90;;;;;;5057317;28;20198;-88
2023/01/07 08:34:36;;;;;;;6.40;5.67;;;5.00;99.90;;;;;;5039787;28;20184;-86
2023/01/07 08:37:02;;;;;;;7.93;6.43;;;5.10;99.90;;;;;;5065992;28;20301;-84
2023/01/07 08:39:28;;;;;;;7.03;5.47;;;5.30;99.90;;;;;;5065204;28;20196;-84
2023/01/07 08:41:54;;;;;;;7.70;5.97;;;5.40;99.90;;;;;;5061313;28;20203;-85
2023/01/07 08:44:20;;;;;;;6.83;6.13;;;5.40;99.90;;;;;;5058761;28;20172;-84
2023/01/07 08:46:45;;;;;;;7.73;6.03;;;5.40;99.90;;;;;;5059295;28;20177;-83
2023/01/07 08:49:11;;;;;;;6.53;5.93;;;5.50;99.90;;;;;;5046135;28;20651;-84
2023/01/07 08:51:37;;;;;;;6.37;5.77;;;5.40;99.90;;;;;;5064513;28;20200;-87
2023/01/07 08:54:03;;;;;;;6.90;6.20;;;5.50;99.90;;;;;;5057025;28;20233;-87
2023/01/07 08:56:29;;;;;;;7.77;6.20;;;5.50;99.90;;;;;;5057139;28;20188;-85
2023/01/07 08:58:54;;;;;;;6.83;5.93;;;5.40;99.90;;;;;;5062040;28;20172;-86
2023/01/07 09:01:20;;;;;;;8.17;6.10;;;5.40;99.90;;;;;;5039122;28;20179;-86
2023/01/07 09:03:46;;;;;;;7.77;5.73;;;5.50;99.90;;;;;;5056202;28;20172;-86
2023/01/07 09:06:11;;;;;;;6.77;5.90;;;5.60;99.90;;;;;;5054890;28;20174;-86
2023/01/07 09:08:37;;;;;;;6.67;5.57;;;5.70;99.90;;;;;;5068669;28;20163;-86
2023/01/07 09:11:03;;;;;;;6.90;5.93;;;5.80;99.90;;;;;;5063093;28;20214;-85
2023/01/07 09:13:29;;;;;;;6.97;5.80;;;5.90;99.90;;;;;;5076443;28;20170;-87
2023/01/07 09:15:54;;;;;;;6.17;5.57;;;6.00;99.90;;;;;;5075561;28;20274;-85
2023/01/07 09:18:20;;;;;;;6.07;5.47;;;6.10;99.90;;;;;;5075425;28;20208;-83
2023/01/07 09:20:46;;;;;;;9.50;5.87;;;6.20;99.90;;;;;;5075402;28;20181;-86
2023/01/07 09:23:12;;;;;;;6.93;6.17;;;6.30;99.90;;;;;;5075688;28;20526;-84
2023/01/07 09:25:37;;;;;;;7.53;6.53;;;6.30;99.90;;;;;;5075604;28;20161;-86
2023/01/07 09:28:03;;;;;;;8.43;6.50;;;6.40;99.90;;;;;;5075528;28;20184;-87
2023/01/07 09:30:29;;;;;;;8.50;6.90;;;6.50;99.90;;;;;;5058190;28;20211;-84
2023/01/07 09:32:55;;;;;;;10.20;7.83;;;6.60;99.90;;;;;;5058604;28;20178;-87
2023/01/07 09:35:21;;;;;;;9.20;7.50;;;6.60;99.90;;;;;;5064722;28;20687;-87
2023/01/07 09:37:46;;;;;;;10.63;7.83;;;6.70;99.90;;;;;;5080959;28;20699;-87
2023/01/07 09:40:40;;;;;;;8.67;7.07;;;6.80;99.90;;;;;;5075605;28;20190;-87
2023/01/07 09:43:26;;;;;;;9.07;7.57;;;6.90;99.90;;;;;;5053901;28;20574;-88
2023/01/07 09:45:55;;;;;;;9.00;7.10;;;7.10;99.90;;;;;;5075618;28;20180;-89
2023/01/07 09:48:56;;;;;;;8.43;7.37;;;7.20;99.90;;;;;;5057908;28;20175;-86
2023/01/07 09:51:36;;;;;;;10.97;8.13;;;7.30;99.90;;;;;;4974170;28;20227;-88
2023/01/07 09:54:07;;;;;;;11.13;8.60;;;7.40;99.90;;;;;;4958143;28;20182;-87
2023/01/07 09:56:35;;;;;;;11.43;8.43;;;7.50;99.90;;;;;;4975224;28;20481;-90
2023/01/07 09:59:04;;;;;;;11.90;8.40;;;7.50;99.90;;;;;;4960067;28;20184;-88
2023/01/07 10:01:43;;;;;;;12.20;8.73;;;7.50;99.90;;;;;;4966044;28;20267;-86
2023/01/07 10:04:38;;;;;;;15.00;9.87;;;7.60;99.90;;;;;;4963803;28;20313;-86
2023/01/07 10:07:37;;;;;;;12.57;9.30;;;7.60;99.90;;;;;;4974638;28;20713;-86
2023/01/07 10:10:33;;;;;;;11.60;9.13;;;7.60;99.90;;;;;;4923566;29;20708;-87
2023/01/07 10:13:35;;;;;;;13.83;9.73;;;7.70;99.90;;;;;;4939606;29;20233;-92
2023/01/07 10:16:29;;;;;;;9.97;8.57;;;7.80;99.90;;;;;;4955252;28;20225;-86
2023/01/07 10:19:17;;;;;;;12.73;9.77;;;7.90;99.90;;;;;;4955524;29;20175;-88
2023/01/07 10:21:50;;;;;;;11.17;9.60;;;8.00;99.90;;;;;;4956666;29;20175;-86
2023/01/07 10:24:27;;;;;;;11.97;9.37;;;8.10;99.90;;;;;;4968949;29;20170;-85
2023/01/07 10:26:57;;;;;;;10.93;9.07;;;8.30;99.90;;;;;;4972237;28;20248;-86
2023/01/07 10:29:42;;;;;;;15.57;10.00;;;8.40;99.90;;;;;;5041745;28;20161;-86
2023/01/07 10:32:20;;;;;;;11.03;9.03;;;8.40;99.90;;;;;;5038164;28;20232;-86
2023/01/07 10:34:52;;;;;;;10.87;9.03;;;8.50;99.90;;;;;;5035362;28;20258;-85
2023/01/07 10:37:30;;;;;;;11.50;9.43;;;8.50;99.90;;;;;;5001333;28;20208;-85
2023/01/07 10:40:11;;;;;;;11.33;8.80;;;8.50;99.90;;;;;;5022544;28;20182;-86
2023/01/07 10:43:02;;;;;;;14.17;9.63;;;8.50;99.90;;;;;;5043342;28;20225;-89
2023/01/07 10:45:43;;;;;;;10.50;8.57;;;8.50;99.90;;;;;;5020161;28;20211;-87
2023/01/07 10:48:21;;;;;;;14.70;9.57;;;8.50;99.90;;;;;;5020459;28;20167;-86
2023/01/07 10:51:05;;;;;;;11.70;9.47;;;8.60;99.90;;;;;;5029599;28;20234;-86
2023/01/07 10:53:58;;;;;;;13.30;9.33;;;8.70;99.90;;;;;;5039453;28;20178;-89
2023/01/07 10:56:32;;;;;;;12.27;8.70;;;8.80;99.90;;;;;;5027523;28;20168;-86
2023/01/07 10:58:58;;;;;;;14.40;8.10;;;8.90;99.90;;;;;;5035703;28;20234;-88
2023/01/07 11:01:33;;;;;;;11.50;7.90;;;9.10;99.90;;;;;;5039837;28;20567;-87
2023/01/07 11:04:00;;;;;;;9.83;7.27;;;9.10;99.90;;;;;;5034783;28;20169;-87
2023/01/07 11:06:42;;;;;;;11.27;7.20;;;9.30;99.90;;;;;;5034016;28;20174;-91
2023/01/07 11:09:13;;;;;;;7.50;6.70;;;9.30;99.90;;;;;;5035157;28;20223;-92
2023/01/07 11:11:41;;;;;;;9.60;7.20;;;9.40;99.90;;;;;;5035563;28;20203;-89
2023/01/07 11:14:13;;;;;;;6.77;6.07;;;9.50;99.90;;;;;;5035061;28;20170;-89
2023/01/07 11:16:46;;;;;;;8.30;6.30;;;9.60;99.90;;;;;;5022253;28;20240;-89
2023/01/07 11:19:12;;;;;;;7.57;6.40;;;9.60;99.90;;;;;;5023229;28;20269;-89
2023/01/07 11:21:38;;;;;;;6.00;5.40;;;9.70;99.90;;;;;;5038889;28;20567;-87
2023/01/07 11:24:34;;;;;;;6.73;5.00;;;9.80;99.90;;;;;;5034906;28;20167;-89
2023/01/07 11:27:11;;;;;;;8.17;5.23;;;9.90;99.90;;;;;;5034895;28;20252;-89
2023/01/07 11:30:09;;;;;;;6.13;5.00;;;10.00;99.90;;;;;;5035473;28;20194;-88
2023/01/07 11:32:39;;;;;;;8.03;4.93;;;;;;;;;;5035110;28;20188;-89
2023/01/07 11:35:05;;;;;;;7.77;5.53;;;10.20;99.90;;;;;;5037632;28;20237;-88
2023/01/07 11:37:40;;;;;;;5.63;5.10;;;10.40;99.90;;;;;;5020623;28;20214;-84
2023/01/07 11:40:27;;;;;;;7.53;5.00;;;10.50;99.90;;;;;;5022498;28;20278;-87
2023/01/07 11:43:02;;;;;;;7.07;4.73;;;10.50;99.90;;;;;;5038170;28;20237;-87
2023/01/07 11:45:58;;;;;;;9.27;4.97;;;10.50;99.90;;;;;;5025107;28;20178;-86
2023/01/07 11:48:36;;;;;;;7.37;4.90;;;10.50;99.90;;;;;;5031847;28;20278;-88
2023/01/07 11:51:09;;;;;;;5.07;4.53;;;10.60;99.90;;;;;;5017105;28;20221;-85
2023/01/07 11:53:43;;;;;;;5.30;4.83;;;10.60;99.90;;;;;;5033690;28;20589;-87
2023/01/07 11:56:21;;;;;;;4.77;4.30;;;10.60;99.90;;;;;;5033465;28;20250;-86
2023/01/07 11:58:50;;;;;;;7.07;5.30;;;10.50;99.90;;;;;;5033391;28;20186;-87
2023/01/07 12:01:19;;;;;;;5.70;4.90;;;10.60;99.90;;;;;;5037214;28;20549;-85
2023/01/07 12:03:51;;;;;;;5.50;4.70;;;10.60;99.90;;;;;;5019394;28;20269;-85
2023/01/07 12:06:27;;;;;;;4.53;4.07;;;10.70;99.90;;;;;;5016407;28;20622;-85
2023/01/07 12:09:33;;;;;;;4.40;4.00;;;10.70;99.90;;;;;;5033486;28;20644;-87
2023/01/07 12:12:38;;;;;;;4.03;3.73;;;10.70;99.90;;;;;;5019837;28;20310;-86
2023/01/07 12:15:18;;;;;;;3.67;3.37;;;10.60;99.90;;;;;;5033807;28;20253;-85
2023/01/07 12:17:47;;;;;;;2.67;2.47;;;10.70;99.90;;;;;;5015052;28;20215;-85
2023/01/07 12:20:38;;;;;;;4.30;3.90;;;10.70;99.90;;;;;;5019160;28;20184;-86
2023/01/07 12:23:22;;;;;;;5.40;3.60;;;10.70;99.90;;;;;;5018920;28;20183;-84
2023/01/07 12:26:00;;;;;;;5.17;3.80;;;10.70;99.90;;;;;;5036748;28;20179;-84
2023/01/07 12:28:56;;;;;;;3.80;3.20;;;10.70;99.90;;;;;;5018672;28;20169;-84
2023/01/07 12:31:52;;;;;;;5.60;3.50;;;10.70;99.90;;;;;;5035517;28;20210;-86
2023/01/07 12:34:33;;;;;;;3.70;3.40;;;10.70;99.90;;;;;;5036498;28;20175;-86
2023/01/07 12:37:30;;;;;;;3.73;3.43;;;10.70;99.90;;;;;;5018794;28;20639;-85
2023/01/07 12:40:16;;;;;;;3.73;3.27;;;10.60;99.90;;;;;;5018083;28;20249;-85
2023/01/07 12:42:50;;;;;;;3.30;3.00;;;10.50;99.90;;;;;;5019997;28;20199;-85
2023/01/07 12:45:40;;;;;;;2.70;2.50;;;10.50;99.90;;;;;;5039169;28;20171;-87
2023/01/07 12:48:29;;;;;;;2.43;2.23;;;10.50;99.90;;;;;;5038248;28;20226;-86
2023/01/07 12:50:58;;;;;;;2.50;2.40;;;10.50;99.90;;;;;;5022733;28;20213;-86
2023/01/07 12:53:42;;;;;;;3.03;2.80;;;10.50;99.90;;;;;;5050379;28;20184;-86
2023/01/07 12:56:31;;;;;;;1.97;1.87;;;10.50;99.90;;;;;;5035619;28;20176;-86
2023/01/07 12:59:30;;;;;;;2.00;1.90;;;10.50;99.90;;;;;;5054547;28;20182;-84
2023/01/07 13:02:31;;;;;;;2.17;2.08;;;10.60;99.90;;;;;;5049272;28;20457;-87
2023/01/07 13:05:39;;;;;;;2.03;1.93;;;10.60;99.90;;;;;;5037671;28;20953;-87
2023/01/07 13:08:20;;;;;;;2.37;2.27;;;10.60;99.90;;;;;;5030633;28;20687;-86
2023/01/07 13:10:54;;;;;;;2.57;2.40;;;10.70;99.90;;;;;;5057509;28;20206;-87
2023/01/07 13:13:28;;;;;;;2.50;2.40;;;10.70;99.90;;;;;;5040578;28;20703;-85
2023/01/07 13:15:55;;;;;;;2.67;2.43;;;10.70;99.90;;;;;;5048820;28;20609;-88
2023/01/07 13:18:21;;;;;;;2.83;2.67;;;10.70;99.90;;;;;;5044660;28;20170;-88
2023/01/07 13:21:10;;;;;;;2.53;2.30;;;10.80;99.90;;;;;;5062355;28;20185;-87
2023/01/07 13:24:00;;;;;;;2.90;2.70;;;10.80;99.90;;;;;;5041773;28;20527;-88